Beverley, Australia

5:56 PM AWST on December 11, 2016 (GMT +0800)
Beverley Western Australia | | Change Station

Elev 720 ft 32.13 °S, 116.95 °E | Updated 8 seconds ago

Mostly Cloudy
Mostly Cloudy
85.5 °F
Feels Like 83 °F
N
3.6
Wind Variable Wind from WSW
Gusts 4.9 mph

Today
High -- | Low -- °F
--% Chance of Precip.
Yesterday
High -- | Low -- °F
Precip. -- in
Pressure 29.77 in
Visibility -9999.0 miles
Clouds
Heat Index 83 °F
Dew Point 49 °F
Humidity 28%
Rainfall 0.00 in
Snow Depth Not available.
4:59 AM 7:12 PM
Waxing Gibbous, 90% visible
METAR YPPH 110930Z 19017KT CAVOK 22/15 Q1008 FM1000 19012KT 9999 -RA FEW020 BKN090 TEMPO 1200/1230 5000 RA SCT018
Pressure 29.77 in
Visibility -9999.0 miles
Clouds
Heat Index 83 °F
Dew Point 49 °F
Humidity 28%
Rainfall 0.00 in
Snow Depth Not available.
4:59 AM 7:12 PM
Waxing Gibbous, 90% visible
METAR YPPH 110930Z 19017KT CAVOK 22/15 Q1008 FM1000 19012KT 9999 -RA FEW020 BKN090 TEMPO 1200/1230 5000 RA SCT018

10-Day Weather Forecast

×

Almanac

Astronomy

Dec. 11, 2016 Rise Set
Actual Time
Civil Twilight
Nautical Twilight
Astronomical Twilight
Moon
Length of Visible Light
Length of Day
Tomorrow will be .
, % of the Moon is Illuminated

Today's Extremes

Country Highs Country Lows

Community

WunderPhotos

Upload Photos

1,956,704 photos uploaded!

WunderBlog® & News

Nearby

Air Quality

  Air Quality AQ Index Pollutant
Not available.

Snow Depth

Station Depth Elevation

Earthquake Activity

City Distance Mag. Time & Date
Minimum magnitude displayed is 2.5.

Coastal Water Temperatures

Place Temperature

Stations

Nearby Weather Stations

Station Location Temp. Windchill Dew Point Humidity Wind Precip. Elev Updated Type